createdAt,value
2018-09-23T00:01:08.220Z,2.20
2018-09-23T00:03:37.297Z,2.80
2018-09-23T00:06:05.711Z,2.70
2018-09-23T00:08:33.955Z,2.57
2018-09-23T00:11:02.209Z,2.50
2018-09-23T00:13:30.428Z,2.23
2018-09-23T00:15:58.746Z,3.13
2018-09-23T00:18:27.039Z,2.90
2018-09-23T00:20:55.412Z,2.40
2018-09-23T00:23:23.615Z,2.80
2018-09-23T00:25:51.811Z,3.03
2018-09-23T00:28:20.128Z,3.20
2018-09-23T00:30:48.440Z,3.07
2018-09-23T00:33:16.747Z,3.70
2018-09-23T00:35:45.036Z,3.80
2018-09-23T00:38:13.288Z,2.60
2018-09-23T00:40:41.563Z,2.57
2018-09-23T00:43:09.842Z,3.33
2018-09-23T00:45:38.182Z,3.23
2018-09-23T00:48:06.431Z,3.80
2018-09-23T00:50:34.672Z,3.60
2018-09-23T00:53:02.936Z,3.90
2018-09-23T00:55:31.224Z,4.10
2018-09-23T00:57:59.408Z,3.47
2018-09-23T01:00:27.635Z,4.30
2018-09-23T01:02:57.034Z,3.43
2018-09-23T01:05:25.255Z,4.00
2018-09-23T01:07:53.532Z,3.50
2018-09-23T01:10:21.856Z,3.50
2018-09-23T01:12:50.059Z,3.23
2018-09-23T01:15:20.332Z,3.70
2018-09-23T01:17:48.579Z,3.83
2018-09-23T01:20:16.853Z,4.27
2018-09-23T01:22:45.149Z,3.90
2018-09-23T01:25:13.410Z,3.70
2018-09-23T01:27:41.776Z,5.17
2018-09-23T01:30:10.104Z,3.83
2018-09-23T01:32:38.315Z,4.90
2018-09-23T01:35:06.612Z,4.00
2018-09-23T01:37:34.910Z,4.30
2018-09-23T01:40:03.173Z,4.30
2018-09-23T01:42:31.426Z,4.30
2018-09-23T01:44:59.779Z,4.07
2018-09-23T01:47:27.979Z,4.60
2018-09-23T01:49:56.247Z,5.00
2018-09-23T01:52:24.204Z,4.70
2018-09-23T01:54:52.188Z,4.57
2018-09-23T01:57:20.198Z,4.87
2018-09-23T01:59:48.271Z,4.87
2018-09-23T02:02:16.539Z,5.20
2018-09-23T02:04:44.808Z,4.80
2018-09-23T02:07:13.079Z,4.50
2018-09-23T02:09:41.340Z,4.97
2018-09-23T02:12:09.536Z,5.27
2018-09-23T02:14:37.824Z,4.57
2018-09-23T02:17:06.079Z,4.40
2018-09-23T02:19:35.415Z,4.60
2018-09-23T02:22:03.688Z,5.03
2018-09-23T02:24:31.917Z,5.17
2018-09-23T02:27:00.283Z,4.57
2018-09-23T02:29:28.566Z,5.90
2018-09-23T02:31:56.775Z,5.63
2018-09-23T02:34:25.462Z,5.07
2018-09-23T02:36:53.718Z,5.30
2018-09-23T02:39:21.991Z,5.43
2018-09-23T02:41:50.291Z,5.10
2018-09-23T02:44:18.627Z,4.77
2018-09-23T02:46:46.924Z,4.83
2018-09-23T02:49:16.207Z,4.77
2018-09-23T02:51:44.494Z,4.87
2018-09-23T02:54:12.719Z,4.80
2018-09-23T02:56:41.024Z,4.43
2018-09-23T02:59:09.323Z,4.80
2018-09-23T03:01:37.596Z,5.87
2018-09-23T03:04:05.816Z,5.50
2018-09-23T03:06:34.051Z,4.63
2018-09-23T03:09:02.399Z,4.30
2018-09-23T03:11:30.707Z,5.27
2018-09-23T03:14:00.032Z,4.30
2018-09-23T03:16:28.324Z,4.23
2018-09-23T03:18:56.563Z,4.23
2018-09-23T03:21:24.827Z,4.97
2018-09-23T03:23:53.181Z,4.90
2018-09-23T03:26:21.416Z,4.10
2018-09-23T03:28:49.687Z,4.40
2018-09-23T03:31:17.940Z,4.63
2018-09-23T03:33:46.256Z,3.57
2018-09-23T03:36:14.500Z,3.90
2018-09-23T03:38:42.883Z,3.70
2018-09-23T03:41:11.184Z,2.90
2018-09-23T03:43:39.439Z,3.73
2018-09-23T03:46:07.651Z,2.67
2018-09-23T03:48:35.896Z,3.17
2018-09-23T03:51:04.139Z,2.30
2018-09-23T03:53:32.347Z,3.00
2018-09-23T03:56:01.690Z,2.80
2018-09-23T03:58:29.635Z,3.33
2018-09-23T04:00:57.575Z,3.60
2018-09-23T04:03:25.647Z,3.27
2018-09-23T04:05:53.904Z,3.00
2018-09-23T04:08:22.244Z,2.80
2018-09-23T04:10:50.591Z,2.40
2018-09-23T04:13:18.828Z,2.60
2018-09-23T04:15:47.096Z,2.70
2018-09-23T04:18:15.440Z,2.60
2018-09-23T04:20:44.664Z,2.50
2018-09-23T04:23:12.992Z,2.17
2018-09-23T04:25:41.192Z,2.30
2018-09-23T04:28:09.432Z,1.97
2018-09-23T04:30:37.612Z,2.00
2018-09-23T04:33:05.851Z,2.23
2018-09-23T04:35:34.080Z,1.63
2018-09-23T04:38:02.372Z,1.63
2018-09-23T04:40:30.608Z,1.53
2018-09-23T04:42:58.871Z,1.50
2018-09-23T04:45:27.155Z,1.40
2018-09-23T04:47:55.416Z,1.83
2018-09-23T04:50:23.680Z,1.50
2018-09-23T04:52:51.942Z,1.70
2018-09-23T04:55:20.250Z,1.73
2018-09-23T04:57:48.463Z,1.57
2018-09-23T05:00:16.688Z,1.73
2018-09-23T05:02:44.630Z,1.80
2018-09-23T05:05:12.617Z,1.67
2018-09-23T05:07:40.858Z,2.03
2018-09-23T05:10:09.084Z,1.70
2018-09-23T05:12:37.279Z,2.03
2018-09-23T05:15:05.480Z,2.00
2018-09-23T05:17:33.663Z,1.70
2018-09-23T05:20:01.889Z,1.97
2018-09-23T05:22:30.130Z,1.93
2018-09-23T05:24:58.315Z,1.53
2018-09-23T05:27:26.535Z,2.20
2018-09-23T05:29:54.819Z,1.67
2018-09-23T05:32:23.039Z,2.10
2018-09-23T05:34:51.311Z,2.07
2018-09-23T05:37:19.535Z,2.10
2018-09-23T05:39:47.791Z,1.67
2018-09-23T05:42:17.743Z,2.07
2018-09-23T05:44:47.992Z,1.90
2018-09-23T05:47:27.260Z,1.70
2018-09-23T05:49:56.704Z,2.10
2018-09-23T05:52:24.970Z,1.90
2018-09-23T05:54:53.206Z,1.57
2018-09-23T05:57:21.291Z,1.50
2018-09-23T05:59:49.325Z,1.83
2018-09-23T06:02:17.608Z,1.67
2018-09-23T06:04:46.699Z,1.70
2018-09-23T06:07:15.013Z,1.93
2018-09-23T06:09:43.669Z,1.80
2018-09-23T06:12:11.871Z,1.90
2018-09-23T06:14:40.151Z,1.87
2018-09-23T06:17:09.028Z,1.57
2018-09-23T06:19:37.037Z,1.93
2018-09-23T06:22:07.130Z,1.60
2018-09-23T06:24:41.268Z,1.77
2018-09-23T06:29:46.481Z,1.50
2018-09-23T06:32:16.695Z,1.70
2018-09-23T06:34:44.996Z,1.90
2018-09-23T06:37:13.320Z,1.63
2018-09-23T06:39:41.796Z,2.13
2018-09-23T06:42:10.253Z,8.67
2018-09-23T06:44:41.192Z,3.50
2018-09-23T06:47:14.545Z,1.90
2018-09-23T06:49:44.214Z,2.03
2018-09-23T06:52:12.768Z,1.50
2018-09-23T06:54:41.078Z,1.93
2018-09-23T06:57:09.320Z,1.50
2018-09-23T06:59:38.370Z,1.70
2018-09-23T07:02:06.348Z,2.50
2018-09-23T07:04:37.072Z,2.00
2018-09-23T07:07:07.431Z,1.60
2018-09-23T07:09:35.806Z,2.07
2018-09-23T07:12:04.224Z,2.30
2018-09-23T07:14:32.479Z,1.60
2018-09-23T07:17:00.797Z,1.97
2018-09-23T07:19:29.926Z,1.67
2018-09-23T07:21:58.210Z,1.90
2018-09-23T07:24:26.485Z,2.13
2018-09-23T07:26:54.810Z,2.00
2018-09-23T07:29:24.934Z,1.60
2018-09-23T07:31:55.644Z,2.10
2018-09-23T07:34:26.059Z,1.47
2018-09-23T07:36:55.838Z,1.80
2018-09-23T07:39:24.043Z,1.90
2018-09-23T07:41:52.439Z,1.47
2018-09-23T07:44:23.072Z,1.50
2018-09-23T07:46:55.829Z,1.67
2018-09-23T07:49:28.392Z,1.63
2018-09-23T07:51:56.691Z,1.40
2018-09-23T07:54:26.219Z,1.50
2018-09-23T07:56:55.239Z,1.47
2018-09-23T07:59:26.010Z,1.60
2018-09-23T08:01:55.923Z,1.20
2018-09-23T08:04:31.907Z,1.53
2018-09-23T08:07:12.226Z,1.83
2018-09-23T08:09:42.259Z,1.53
2018-09-23T08:13:13.357Z,1.47
2018-09-23T08:15:41.755Z,1.57
2018-09-23T08:18:10.020Z,2.00
2018-09-23T08:20:39.913Z,1.50
2018-09-23T08:23:08.367Z,1.10
2018-09-23T08:25:38.025Z,1.60
2018-09-23T08:30:45.252Z,1.37
2018-09-23T08:33:14.545Z,1.23
2018-09-23T08:35:43.290Z,1.30
2018-09-23T08:38:11.789Z,1.57
2018-09-23T08:40:40.087Z,1.90
2018-09-23T08:43:08.376Z,1.23
2018-09-23T08:45:37.055Z,1.30
2018-09-23T08:48:06.405Z,1.47
2018-09-23T08:50:35.309Z,1.30
2018-09-23T08:53:04.648Z,1.30
2018-09-23T08:55:33.011Z,1.03
2018-09-23T08:58:02.364Z,1.07
2018-09-23T09:00:31.752Z,1.30
2018-09-23T09:03:03.133Z,1.20
2018-09-23T09:05:37.945Z,1.00
2018-09-23T09:08:08.515Z,1.40
2018-09-23T09:10:36.871Z,1.30
2018-09-23T09:13:04.851Z,1.60
2018-09-23T09:15:33.144Z,1.67
2018-09-23T09:18:01.401Z,1.30
2018-09-23T09:20:29.644Z,1.50
2018-09-23T09:22:57.971Z,1.37
2018-09-23T09:25:26.076Z,1.40
2018-09-23T09:27:54.320Z,1.40
2018-09-23T09:30:22.613Z,1.57
2018-09-23T09:32:50.859Z,1.37
2018-09-23T09:35:19.142Z,1.30
2018-09-23T09:37:47.379Z,1.53
2018-09-23T09:40:15.728Z,1.70
2018-09-23T09:42:43.975Z,1.30
2018-09-23T09:45:12.256Z,1.43
2018-09-23T09:47:41.458Z,1.63
2018-09-23T09:50:09.656Z,1.60
2018-09-23T09:52:37.917Z,1.60
2018-09-23T09:55:06.166Z,1.23
2018-09-23T09:57:34.444Z,1.40
2018-09-23T10:00:03.649Z,1.07
2018-09-23T10:02:31.950Z,1.30
2018-09-23T10:05:01.232Z,1.00
2018-09-23T10:08:32.824Z,1.40
2018-09-23T10:11:01.066Z,1.70
2018-09-23T10:13:29.122Z,1.53
2018-09-23T10:15:57.330Z,1.10
2018-09-23T10:18:25.522Z,1.10
2018-09-23T10:20:53.716Z,1.00
2018-09-23T10:23:22.008Z,1.67
2018-09-23T10:25:50.204Z,1.20
2018-09-23T10:28:18.476Z,1.00
2018-09-23T10:30:46.759Z,1.07
2018-09-23T10:33:15.039Z,1.00
2018-09-23T10:35:43.303Z,0.90
2018-09-23T10:38:11.576Z,0.80
2018-09-23T10:40:39.786Z,0.90
2018-09-23T10:43:07.806Z,0.90
2018-09-23T10:45:36.119Z,0.80
2018-09-23T10:48:04.380Z,0.97
2018-09-23T10:50:32.632Z,0.90
2018-09-23T10:53:01.073Z,0.70
2018-09-23T10:55:29.334Z,0.80
2018-09-23T10:57:57.625Z,1.00
2018-09-23T11:00:25.850Z,0.80
2018-09-23T11:02:54.203Z,0.70
2018-09-23T11:05:22.416Z,0.80
2018-09-23T11:07:50.789Z,0.70
2018-09-23T11:10:19.066Z,0.70
2018-09-23T11:12:47.347Z,0.90
2018-09-23T11:15:15.624Z,0.70
2018-09-23T11:17:43.508Z,0.70
2018-09-23T11:20:11.500Z,0.63
2018-09-23T11:22:39.696Z,0.60
2018-09-23T11:25:08.008Z,0.80
2018-09-23T11:27:36.276Z,0.70
2018-09-23T11:30:04.616Z,0.50
2018-09-23T11:32:32.843Z,0.50
2018-09-23T11:35:01.099Z,0.70
2018-09-23T11:37:29.396Z,0.73
2018-09-23T11:39:57.647Z,0.80
2018-09-23T11:42:25.883Z,0.90
2018-09-23T11:44:54.136Z,1.00
2018-09-23T11:47:22.400Z,1.10
2018-09-23T11:49:50.658Z,0.70
2018-09-23T11:52:19.031Z,0.93
2018-09-23T11:54:47.381Z,1.10
2018-09-23T11:57:15.595Z,0.93
2018-09-23T11:59:43.875Z,0.80
2018-09-23T12:02:12.187Z,0.70
2018-09-23T12:04:40.322Z,0.60
2018-09-23T12:07:08.576Z,0.60
2018-09-23T12:09:36.865Z,0.60
2018-09-23T12:12:05.168Z,0.80
2018-09-23T12:14:33.443Z,0.83
2018-09-23T12:17:01.698Z,0.60
2018-09-23T12:19:29.983Z,0.70
2018-09-23T12:21:58.247Z,0.50
2018-09-23T12:24:26.532Z,0.60
2018-09-23T12:26:54.791Z,0.60
2018-09-23T12:29:23.089Z,0.80
2018-09-23T12:31:51.349Z,0.60
2018-09-23T12:34:19.636Z,0.67
2018-09-23T12:36:47.888Z,0.60
2018-09-23T12:39:16.180Z,0.60
2018-09-23T12:41:44.455Z,0.70
2018-09-23T12:44:12.759Z,0.70
2018-09-23T12:46:41.017Z,0.77
2018-09-23T12:49:09.290Z,0.80
2018-09-23T12:51:37.560Z,0.70
2018-09-23T12:54:05.770Z,0.70
2018-09-23T12:56:34.372Z,1.00
2018-09-23T12:59:02.583Z,0.70
2018-09-23T13:01:30.919Z,0.80
2018-09-23T13:03:59.170Z,0.70
2018-09-23T13:06:27.369Z,0.70
2018-09-23T13:08:55.593Z,0.90
2018-09-23T13:11:23.867Z,0.70
2018-09-23T13:13:52.124Z,0.90
2018-09-23T13:16:20.427Z,0.70
2018-09-23T13:18:48.762Z,0.53
2018-09-23T13:21:16.667Z,0.60
2018-09-23T13:23:44.884Z,0.57
2018-09-23T13:26:13.109Z,0.60
2018-09-23T13:28:41.388Z,0.70
2018-09-23T13:31:09.659Z,0.60
2018-09-23T13:33:37.962Z,0.50
2018-09-23T13:36:05.983Z,0.60
2018-09-23T13:38:34.288Z,0.77
2018-09-23T13:41:02.619Z,0.60
2018-09-23T13:43:30.826Z,0.60
2018-09-23T13:45:59.117Z,0.70
2018-09-23T13:48:28.283Z,0.80
2018-09-23T13:50:56.583Z,0.60
2018-09-23T13:53:24.878Z,0.63
2018-09-23T13:55:53.159Z,0.60
2018-09-23T13:58:21.416Z,0.50
2018-09-23T14:00:49.389Z,0.70
2018-09-23T14:03:17.640Z,0.70
2018-09-23T14:05:45.968Z,0.60
2018-09-23T14:08:14.167Z,0.60
2018-09-23T14:10:42.379Z,0.50
2018-09-23T14:13:10.687Z,0.70
2018-09-23T14:15:39.055Z,0.70
2018-09-23T14:18:07.393Z,0.70
2018-09-23T14:20:35.723Z,0.60
2018-09-23T14:23:03.967Z,0.90
2018-09-23T14:25:32.231Z,0.70
2018-09-23T14:28:00.543Z,0.57
2018-09-23T14:30:29.208Z,0.50
2018-09-23T14:32:57.489Z,0.60
2018-09-23T14:35:25.771Z,0.60
2018-09-23T14:37:53.975Z,0.77
2018-09-23T14:40:22.199Z,0.77
2018-09-23T14:42:50.448Z,0.70
2018-09-23T14:45:18.646Z,0.60
2018-09-23T14:47:46.876Z,0.77
2018-09-23T14:50:15.099Z,0.70
2018-09-23T14:52:43.286Z,0.70
2018-09-23T14:55:11.626Z,0.70
2018-09-23T14:57:39.832Z,0.60
2018-09-23T15:00:08.112Z,0.70
2018-09-23T15:02:36.435Z,0.80
2018-09-23T15:05:04.651Z,0.60
2018-09-23T15:07:32.937Z,0.60
2018-09-23T15:10:01.241Z,0.60
2018-09-23T15:12:29.476Z,0.90
2018-09-23T15:14:57.756Z,0.50
2018-09-23T15:17:26.044Z,0.70
2018-09-23T15:19:54.248Z,0.50
2018-09-23T15:22:22.209Z,0.70
2018-09-23T15:24:50.412Z,0.60
2018-09-23T15:27:18.607Z,0.87
2018-09-23T15:29:46.799Z,0.60
2018-09-23T15:32:15.084Z,0.60
2018-09-23T15:34:43.352Z,0.60
2018-09-23T15:37:11.544Z,0.90
2018-09-23T15:39:39.803Z,0.70
2018-09-23T15:42:08.149Z,0.90
2018-09-23T15:44:36.320Z,0.97
2018-09-23T15:47:04.511Z,2.00
2018-09-23T15:49:32.711Z,1.47
2018-09-23T15:52:00.994Z,1.30
2018-09-23T15:54:29.148Z,0.80
2018-09-23T15:56:57.331Z,0.80
2018-09-23T15:59:25.591Z,0.70
2018-09-23T16:01:53.783Z,1.00
2018-09-23T16:04:22.472Z,0.70
2018-09-23T16:06:50.995Z,0.90
2018-09-23T16:09:19.179Z,0.80
2018-09-23T16:11:47.379Z,0.70
2018-09-23T16:14:15.695Z,0.67
2018-09-23T16:16:43.876Z,0.80
2018-09-23T16:19:12.141Z,0.83
2018-09-23T16:21:40.087Z,0.60
2018-09-23T16:24:08.206Z,0.70
2018-09-23T16:26:36.499Z,0.90
2018-09-23T16:29:04.719Z,0.80
2018-09-23T16:31:33.015Z,0.90
2018-09-23T16:34:01.260Z,0.80
2018-09-23T16:36:29.547Z,1.03
2018-09-23T16:38:57.815Z,0.63
2018-09-23T16:41:26.097Z,0.90
2018-09-23T16:43:54.371Z,0.70
2018-09-23T16:46:22.647Z,0.63
2018-09-23T16:48:50.859Z,1.07
2018-09-23T16:51:19.295Z,0.80
2018-09-23T16:53:47.559Z,0.90
2018-09-23T16:56:15.844Z,1.03
2018-09-23T16:58:44.113Z,1.00
2018-09-23T17:01:12.400Z,1.20
2018-09-23T17:03:40.663Z,0.60
2018-09-23T17:06:08.943Z,0.87
2018-09-23T17:08:37.207Z,1.23
2018-09-23T17:11:05.737Z,1.00
2018-09-23T17:13:33.963Z,1.40
2018-09-23T17:16:02.271Z,1.20
2018-09-23T17:18:30.216Z,2.67
2018-09-23T17:20:58.503Z,3.57
2018-09-23T17:23:26.711Z,1.17
2018-09-23T17:25:54.942Z,0.80
2018-09-23T17:28:23.329Z,0.70
2018-09-23T17:30:51.509Z,0.70
2018-09-23T17:33:19.663Z,0.80
2018-09-23T17:35:47.628Z,0.80
2018-09-23T17:38:15.922Z,1.13
2018-09-23T17:40:44.236Z,0.70
2018-09-23T17:43:12.379Z,1.10
2018-09-23T17:45:40.555Z,0.77
2018-09-23T17:48:08.775Z,0.70
2018-09-23T17:50:37.000Z,0.70
2018-09-23T17:53:04.998Z,0.80
2018-09-23T17:55:33.246Z,1.03
2018-09-23T17:58:01.457Z,0.77
2018-09-23T18:00:29.683Z,0.70
2018-09-23T18:02:57.867Z,0.73
2018-09-23T18:05:26.051Z,0.70
2018-09-23T18:07:54.281Z,0.60
2018-09-23T18:10:22.491Z,0.80
2018-09-23T18:12:50.797Z,0.60
2018-09-23T18:15:19.033Z,0.70
2018-09-23T18:17:46.986Z,0.70
2018-09-23T18:20:15.180Z,0.90
2018-09-23T18:22:43.562Z,0.60
2018-09-23T18:25:11.852Z,0.80
2018-09-23T18:27:39.807Z,0.77
2018-09-23T18:30:08.082Z,0.80
2018-09-23T18:32:36.340Z,1.00
2018-09-23T18:35:04.631Z,0.90
2018-09-23T18:37:33.000Z,0.70
2018-09-23T18:40:01.140Z,0.90
2018-09-23T18:42:29.358Z,1.17
2018-09-23T18:44:57.536Z,0.80
2018-09-23T18:47:25.791Z,0.67
2018-09-23T18:49:53.796Z,0.90
2018-09-23T18:52:21.712Z,0.93
2018-09-23T18:54:55.429Z,0.80
2018-09-23T18:57:23.621Z,0.70
2018-09-23T18:59:51.911Z,1.27
2018-09-23T19:02:20.120Z,0.60
2018-09-23T19:04:48.367Z,0.90
2018-09-23T19:07:16.584Z,0.90
2018-09-23T19:09:44.804Z,1.00
2018-09-23T19:12:13.089Z,0.70
2018-09-23T19:14:41.355Z,1.17
2018-09-23T19:17:09.535Z,0.87
2018-09-23T19:20:13.486Z,0.73
2018-09-23T19:22:46.952Z,0.87
2018-09-23T19:25:15.204Z,0.90
2018-09-23T19:27:43.416Z,0.80
2018-09-23T19:30:11.612Z,0.70
2018-09-23T19:33:42.989Z,0.60
2018-09-23T19:36:11.279Z,0.93
2018-09-23T19:38:39.558Z,1.00
2018-09-23T19:41:07.841Z,0.87
2018-09-23T19:43:36.139Z,0.70
2018-09-23T19:46:04.751Z,0.83
2018-09-23T19:48:33.133Z,1.10
2018-09-23T19:51:01.335Z,1.17
2018-09-23T19:53:29.635Z,0.80
2018-09-23T19:55:57.907Z,1.53
2018-09-23T19:58:26.331Z,2.60
2018-09-23T20:00:54.839Z,1.10
2018-09-23T20:03:23.016Z,0.90
2018-09-23T20:05:51.304Z,1.00
2018-09-23T20:08:19.640Z,0.90
2018-09-23T20:10:47.845Z,0.70
2018-09-23T20:13:16.072Z,0.87
2018-09-23T20:15:44.487Z,1.27
2018-09-23T20:18:12.682Z,1.00
2018-09-23T20:20:41.333Z,1.33
2018-09-23T20:23:09.662Z,1.00
2018-09-23T20:25:38.361Z,0.87
2018-09-23T20:28:06.779Z,0.83
2018-09-23T20:30:35.493Z,1.00
2018-09-23T20:33:04.517Z,0.80
2018-09-23T20:35:33.159Z,1.47
2018-09-23T20:38:01.834Z,0.80
2018-09-23T20:40:31.400Z,1.20
2018-09-23T20:43:00.083Z,1.10
2018-09-23T20:45:29.972Z,0.90
2018-09-23T20:47:58.359Z,0.90
2018-09-23T20:50:27.238Z,0.90
2018-09-23T20:52:55.790Z,0.80
2018-09-23T20:55:25.703Z,0.70
2018-09-23T20:57:58.273Z,0.90
2018-09-23T21:00:27.654Z,1.23
2018-09-23T21:02:55.813Z,0.90
2018-09-23T21:05:24.088Z,0.80
2018-09-23T21:07:52.901Z,0.97
2018-09-23T21:10:21.433Z,0.73
2018-09-23T21:12:50.736Z,0.60
2018-09-23T21:15:21.992Z,0.90
2018-09-23T21:17:51.874Z,0.60
2018-09-23T21:20:20.558Z,1.10
2018-09-23T21:22:49.598Z,0.97
2018-09-23T21:25:19.394Z,1.97
2018-09-23T21:27:47.973Z,0.63
2018-09-23T21:30:17.141Z,0.70
2018-09-23T21:32:46.198Z,0.70
2018-09-23T21:35:15.750Z,0.87
2018-09-23T21:37:47.389Z,1.10
2018-09-23T21:40:18.973Z,0.70
2018-09-23T21:42:48.479Z,0.70
2018-09-23T21:45:17.647Z,1.40
2018-09-23T21:47:46.580Z,0.70
2018-09-23T21:50:14.952Z,1.10
2018-09-23T21:52:45.128Z,0.90
2018-09-23T21:55:14.139Z,0.90
2018-09-23T21:57:43.274Z,0.63
2018-09-23T22:00:16.719Z,0.80
2018-09-23T22:02:45.846Z,0.80
2018-09-23T22:05:14.424Z,0.80
2018-09-23T22:07:43.826Z,0.87
2018-09-23T22:10:12.485Z,0.80
2018-09-23T22:12:41.494Z,0.70
2018-09-23T22:15:16.461Z,0.70
2018-09-23T22:17:45.457Z,0.73
2018-09-23T22:20:15.166Z,0.70
2018-09-23T22:22:44.037Z,0.60
2018-09-23T22:25:12.997Z,0.80
2018-09-23T22:27:42.075Z,0.80
2018-09-23T22:30:11.612Z,0.80
2018-09-23T22:32:42.057Z,0.80
2018-09-23T22:35:11.173Z,1.37
2018-09-23T22:37:40.122Z,0.60
2018-09-23T22:40:10.559Z,0.70
2018-09-23T22:42:39.228Z,0.60
2018-09-23T22:45:09.125Z,0.90
2018-09-23T22:47:38.615Z,0.70
2018-09-23T22:50:12.339Z,0.70
2018-09-23T22:52:41.275Z,0.80
2018-09-23T22:57:54.864Z,0.80
2018-09-23T23:00:23.463Z,0.70
2018-09-23T23:02:52.552Z,0.77
2018-09-23T23:05:21.602Z,1.00
2018-09-23T23:07:50.677Z,0.70
2018-09-23T23:10:19.366Z,0.90
2018-09-23T23:12:48.052Z,0.80
2018-09-23T23:15:17.277Z,0.80
2018-09-23T23:17:47.194Z,0.97
2018-09-23T23:20:15.956Z,0.80
2018-09-23T23:22:44.305Z,0.90
2018-09-23T23:25:12.558Z,1.00
2018-09-23T23:27:41.211Z,0.80
2018-09-23T23:30:09.611Z,0.90
2018-09-23T23:32:37.945Z,0.80
2018-09-23T23:35:06.385Z,0.97
2018-09-23T23:37:34.929Z,0.90
2018-09-23T23:40:03.135Z,0.90
2018-09-23T23:42:31.503Z,0.90
2018-09-23T23:45:00.017Z,1.30
2018-09-23T23:47:28.477Z,1.00
2018-09-23T23:49:56.938Z,0.80
2018-09-23T23:52:25.321Z,0.90
2018-09-23T23:54:53.804Z,1.00
2018-09-23T23:57:22.246Z,0.90
2018-09-23T23:59:50.542Z,1.27
